ASY31 ENGM-ESPA
Flight info
| Callsign | ASY31 |
|---|---|
| Flight time | 1h 37m |
| Altitude | 27000 |
| Route | RIBBE DCT EGAGO DCT TIMOB |
| Aircraft | C30J/M-SDE2E3FGRY/H |
Departure
| Time | 2026-05-06 07:08 |
|---|---|
| Airport | Oslo-Gardermoen International Airport (ENGM) |
Arrival
| Time | 2026-05-06 08:45 |
|---|---|
| Airport | Luleå Airport (ESPA) |
| Time | Latitude | Longitude | Altitude | Speed | Heading |
|---|---|---|---|---|---|
| 2026-05-06 06:50 | 60.20310 | 11.07725 | 671 ft | 0 kts | 287° |
| 2026-05-06 07:00 | 60.20310 | 11.07723 | 671 ft | 1 kts | 287° |
| 2026-05-06 07:01 | 60.20329 | 11.07694 | 671 ft | 7 kts | 348° |
| 2026-05-06 07:01 | 60.20344 | 11.07758 | 671 ft | 8 kts | 91° |
| 2026-05-06 07:01 | 60.20339 | 11.07875 | 672 ft | 7 kts | 53° |
| 2026-05-06 07:01 | 60.20396 | 11.07935 | 673 ft | 12 kts | 16° |
| 2026-05-06 07:02 | 60.20466 | 11.07973 | 673 ft | 8 kts | 14° |
| 2026-05-06 07:02 | 60.20514 | 11.08001 | 673 ft | 8 kts | 19° |
| 2026-05-06 07:02 | 60.20553 | 11.08064 | 673 ft | 7 kts | 56° |
| 2026-05-06 07:02 | 60.20585 | 11.08158 | 674 ft | 10 kts | 55° |
| 2026-05-06 07:03 | 60.20622 | 11.08285 | 673 ft | 11 kts | 61° |
| 2026-05-06 07:03 | 60.20659 | 11.08421 | 676 ft | 10 kts | 66° |
| 2026-05-06 07:03 | 60.20690 | 11.08573 | 672 ft | 14 kts | 67° |
| 2026-05-06 07:03 | 60.20697 | 11.08703 | 675 ft | 12 kts | 104° |
| 2026-05-06 07:04 | 60.20672 | 11.08893 | 675 ft | 17 kts | 106° |
| 2026-05-06 07:04 | 60.20642 | 11.09121 | 676 ft | 15 kts | 81° |
| 2026-05-06 07:04 | 60.20719 | 11.09216 | 676 ft | 13 kts | 21° |
| 2026-05-06 07:04 | 60.20834 | 11.09283 | 681 ft | 16 kts | 15° |
| 2026-05-06 07:05 | 60.20926 | 11.09333 | 682 ft | 14 kts | 16° |
| 2026-05-06 07:05 | 60.21047 | 11.09405 | 680 ft | 21 kts | 20° |
| 2026-05-06 07:05 | 60.21186 | 11.09488 | 678 ft | 21 kts | 17° |
| 2026-05-06 07:05 | 60.21325 | 11.09567 | 680 ft | 21 kts | 15° |
| 2026-05-06 07:06 | 60.21458 | 11.09637 | 681 ft | 16 kts | 8° |
| 2026-05-06 07:06 | 60.21541 | 11.09554 | 682 ft | 11 kts | 306° |
| 2026-05-06 07:06 | 60.21567 | 11.09387 | 676 ft | 13 kts | 284° |
| 2026-05-06 07:06 | 60.21575 | 11.09240 | 682 ft | 9 kts | 249° |
| 2026-05-06 07:07 | 60.21541 | 11.09133 | 676 ft | 9 kts | 214° |
| 2026-05-06 07:07 | 60.21468 | 11.09089 | 681 ft | 13 kts | 197° |
| 2026-05-06 07:07 | 60.21131 | 11.08888 | 680 ft | 98 kts | 197° |
| 2026-05-06 07:07 | 60.20227 | 11.08396 | 759 ft | 160 kts | 196° |
| 2026-05-06 07:08 | 60.19102 | 11.07774 | 1290 ft | 176 kts | 195° |
| 2026-05-06 07:08 | 60.17932 | 11.07136 | 2196 ft | 173 kts | 197° |
| 2026-05-06 07:08 | 60.16872 | 11.05948 | 2987 ft | 181 kts | 226° |
| 2026-05-06 07:08 | 60.16347 | 11.04587 | 3506 ft | 187 kts | 239° |
| 2026-05-06 07:09 | 60.15714 | 11.02215 | 4294 ft | 196 kts | 244° |
| 2026-05-06 07:09 | 60.15128 | 10.99715 | 5150 ft | 200 kts | 245° |
| 2026-05-06 07:09 | 60.14545 | 10.97168 | 5998 ft | 202 kts | 249° |
| 2026-05-06 07:09 | 60.14299 | 10.94410 | 6839 ft | 204 kts | 270° |
| 2026-05-06 07:10 | 60.14464 | 10.91594 | 7665 ft | 206 kts | 278° |
| 2026-05-06 07:10 | 60.14728 | 10.88747 | 8506 ft | 208 kts | 279° |
| 2026-05-06 07:10 | 60.15003 | 10.85872 | 9360 ft | 211 kts | 278° |
| 2026-05-06 07:10 | 60.15330 | 10.82981 | 10185 ft | 215 kts | 289° |
| 2026-05-06 07:11 | 60.16248 | 10.80633 | 11016 ft | 222 kts | 323° |
| 2026-05-06 07:11 | 60.17733 | 10.79614 | 11826 ft | 231 kts | 345° |
| 2026-05-06 07:11 | 60.19338 | 10.79186 | 12468 ft | 242 kts | 348° |
| 2026-05-06 07:11 | 60.21086 | 10.78842 | 12570 ft | 270 kts | 353° |
| 2026-05-06 07:12 | 60.22996 | 10.79642 | 12864 ft | 294 kts | 21° |
| 2026-05-06 07:12 | 60.24701 | 10.82091 | 13273 ft | 307 kts | 38° |
| 2026-05-06 07:12 | 60.26269 | 10.85058 | 13748 ft | 311 kts | 40° |
| 2026-05-06 07:12 | 60.27821 | 10.88132 | 14151 ft | 315 kts | 41° |
| 2026-05-06 07:13 | 60.29377 | 10.91258 | 14549 ft | 319 kts | 40° |
| 2026-05-06 07:13 | 60.30929 | 10.94398 | 14989 ft | 321 kts | 41° |
| 2026-05-06 07:13 | 60.32502 | 10.97595 | 15396 ft | 324 kts | 41° |
| 2026-05-06 07:13 | 60.34097 | 11.00843 | 15744 ft | 327 kts | 40° |
| 2026-05-06 07:14 | 60.35706 | 11.04128 | 16082 ft | 331 kts | 40° |
| 2026-05-06 07:14 | 60.37320 | 11.07429 | 16428 ft | 334 kts | 40° |
| 2026-05-06 07:14 | 60.38975 | 11.10820 | 16782 ft | 337 kts | 39° |
| 2026-05-06 07:14 | 60.40614 | 11.14184 | 17112 ft | 340 kts | 39° |
| 2026-05-06 07:15 | 60.42285 | 11.17614 | 17427 ft | 343 kts | 38° |
| 2026-05-06 07:15 | 60.44090 | 11.20707 | 17719 ft | 338 kts | 27° |
| 2026-05-06 07:15 | 60.46083 | 11.23074 | 18015 ft | 332 kts | 16° |
| 2026-05-06 07:15 | 60.48204 | 11.24863 | 18318 ft | 329 kts | 11° |
| 2026-05-06 07:16 | 60.50358 | 11.26485 | 18578 ft | 331 kts | 10° |
| 2026-05-06 07:16 | 60.52532 | 11.28071 | 18823 ft | 332 kts | 9° |
| 2026-05-06 07:16 | 60.54720 | 11.29644 | 19054 ft | 334 kts | 9° |
| 2026-05-06 07:16 | 60.56918 | 11.31214 | 19318 ft | 337 kts | 9° |
| 2026-05-06 07:17 | 60.59139 | 11.32798 | 19517 ft | 340 kts | 9° |
| 2026-05-06 07:17 | 60.61374 | 11.34392 | 19726 ft | 342 kts | 9° |
| 2026-05-06 07:17 | 60.63618 | 11.35993 | 19949 ft | 344 kts | 9° |
| 2026-05-06 07:17 | 60.65883 | 11.37613 | 20149 ft | 346 kts | 9° |
| 2026-05-06 07:18 | 60.68134 | 11.39226 | 20332 ft | 347 kts | 9° |
| 2026-05-06 07:18 | 60.70419 | 11.40863 | 20510 ft | 349 kts | 9° |
| 2026-05-06 07:18 | 60.72716 | 11.42470 | 20683 ft | 347 kts | 6° |
| 2026-05-06 07:18 | 60.75048 | 11.43621 | 20853 ft | 342 kts | 359° |
| 2026-05-06 07:19 | 60.77380 | 11.44288 | 20969 ft | 339 kts | 354° |
| 2026-05-06 07:19 | 60.79733 | 11.44686 | 20980 ft | 337 kts | 352° |
| 2026-05-06 07:19 | 60.82054 | 11.45024 | 20981 ft | 332 kts | 352° |
| 2026-05-06 07:19 | 60.84363 | 11.45329 | 20986 ft | 333 kts | 351° |
| 2026-05-06 07:20 | 60.86689 | 11.45620 | 21004 ft | 337 kts | 352° |
| 2026-05-06 07:20 | 60.89039 | 11.45915 | 20974 ft | 338 kts | 352° |
| 2026-05-06 07:20 | 60.91383 | 11.46209 | 20981 ft | 336 kts | 352° |
| 2026-05-06 07:20 | 60.93718 | 11.46500 | 20983 ft | 336 kts | 352° |
| 2026-05-06 07:21 | 60.96046 | 11.46789 | 20981 ft | 336 kts | 352° |
| 2026-05-06 07:21 | 60.98352 | 11.47075 | 20982 ft | 336 kts | 352° |
| 2026-05-06 07:21 | 61.00695 | 11.47367 | 20984 ft | 337 kts | 352° |
| 2026-05-06 07:21 | 61.03031 | 11.47658 | 20974 ft | 336 kts | 352° |
| 2026-05-06 07:22 | 61.05364 | 11.47950 | 20981 ft | 336 kts | 352° |
| 2026-05-06 07:22 | 61.07704 | 11.48204 | 20978 ft | 334 kts | 350° |
| 2026-05-06 07:22 | 61.10025 | 11.48238 | 20988 ft | 333 kts | 349° |
| 2026-05-06 07:22 | 61.12344 | 11.48240 | 20978 ft | 333 kts | 349° |
| 2026-05-06 07:23 | 61.14646 | 11.48246 | 20981 ft | 332 kts | 349° |
| 2026-05-06 07:23 | 61.16961 | 11.48252 | 20987 ft | 333 kts | 349° |
| 2026-05-06 07:23 | 61.19283 | 11.48258 | 20978 ft | 333 kts | 349° |
| 2026-05-06 07:23 | 61.21561 | 11.48265 | 20977 ft | 332 kts | 349° |
| 2026-05-06 07:24 | 61.23878 | 11.48272 | 20980 ft | 332 kts | 349° |
| 2026-05-06 07:24 | 61.26189 | 11.48279 | 20979 ft | 333 kts | 349° |
| 2026-05-06 07:24 | 61.28538 | 11.48287 | 20982 ft | 333 kts | 349° |
| 2026-05-06 07:24 | 61.30816 | 11.48294 | 20980 ft | 333 kts | 349° |
| 2026-05-06 07:25 | 61.33137 | 11.48303 | 20973 ft | 333 kts | 349° |
| 2026-05-06 07:25 | 61.35469 | 11.48716 | 20963 ft | 347 kts | 4° |
| 2026-05-06 07:25 | 61.37751 | 11.50750 | 20973 ft | 367 kts | 25° |
| 2026-05-06 07:25 | 61.39724 | 11.54266 | 20992 ft | 378 kts | 38° |
| 2026-05-06 07:26 | 61.41544 | 11.58259 | 20981 ft | 381 kts | 41° |
| 2026-05-06 07:26 | 61.43316 | 11.62391 | 21031 ft | 380 kts | 44° |
| 2026-05-06 07:26 | 61.45022 | 11.66462 | 20982 ft | 373 kts | 44° |
| 2026-05-06 07:26 | 61.46696 | 11.70490 | 20976 ft | 369 kts | 44° |
| 2026-05-06 07:27 | 61.48380 | 11.74557 | 20980 ft | 370 kts | 44° |
| 2026-05-06 07:27 | 61.50070 | 11.78645 | 20981 ft | 373 kts | 44° |
| 2026-05-06 07:27 | 61.51770 | 11.82769 | 20980 ft | 374 kts | 45° |
| 2026-05-06 07:27 | 61.53470 | 11.86902 | 20986 ft | 373 kts | 45° |
| 2026-05-06 07:28 | 61.55160 | 11.91021 | 20983 ft | 373 kts | 45° |
| 2026-05-06 07:28 | 61.56849 | 11.95143 | 20973 ft | 372 kts | 45° |
| 2026-05-06 07:28 | 61.60181 | 12.03296 | 20973 ft | 373 kts | 45° |
| 2026-05-06 07:29 | 61.61872 | 12.07446 | 20995 ft | 373 kts | 45° |
| 2026-05-06 07:29 | 61.63565 | 12.11609 | 20980 ft | 374 kts | 45° |
| 2026-05-06 07:29 | 61.65255 | 12.15773 | 20978 ft | 375 kts | 44° |
| 2026-05-06 07:29 | 61.66956 | 12.19969 | 20998 ft | 376 kts | 44° |
| 2026-05-06 07:30 | 61.68694 | 12.23968 | 21019 ft | 373 kts | 41° |
| 2026-05-06 07:30 | 61.70510 | 12.27908 | 20989 ft | 365 kts | 41° |
| 2026-05-06 07:30 | 61.72277 | 12.31702 | 20992 ft | 362 kts | 41° |
| 2026-05-06 07:30 | 61.74018 | 12.35432 | 20995 ft | 363 kts | 41° |
| 2026-05-06 07:31 | 61.75816 | 12.39289 | 20995 ft | 365 kts | 41° |
| 2026-05-06 07:31 | 61.77598 | 12.43121 | 20995 ft | 366 kts | 41° |
| 2026-05-06 07:31 | 61.79383 | 12.46968 | 20994 ft | 365 kts | 41° |
| 2026-05-06 07:31 | 61.81120 | 12.50716 | 20995 ft | 365 kts | 41° |
| 2026-05-06 07:32 | 61.82891 | 12.54543 | 20993 ft | 365 kts | 41° |
| 2026-05-06 07:32 | 61.84664 | 12.58383 | 20997 ft | 365 kts | 41° |
| 2026-05-06 07:32 | 61.86433 | 12.62220 | 20995 ft | 365 kts | 41° |
| 2026-05-06 07:32 | 61.88203 | 12.66068 | 20998 ft | 365 kts | 41° |
| 2026-05-06 07:33 | 61.89980 | 12.69937 | 21002 ft | 365 kts | 41° |
| 2026-05-06 07:33 | 61.91749 | 12.73797 | 21001 ft | 366 kts | 41° |
| 2026-05-06 07:33 | 61.93530 | 12.77688 | 21036 ft | 365 kts | 41° |
| 2026-05-06 07:33 | 61.95288 | 12.81540 | 21005 ft | 359 kts | 42° |
| 2026-05-06 07:34 | 61.96993 | 12.85285 | 20990 ft | 353 kts | 42° |
| 2026-05-06 07:34 | 61.98708 | 12.89051 | 21001 ft | 353 kts | 42° |
| 2026-05-06 07:34 | 62.00421 | 12.92817 | 21003 ft | 356 kts | 43° |
| 2026-05-06 07:34 | 62.02151 | 12.96631 | 20999 ft | 357 kts | 43° |
| 2026-05-06 07:35 | 62.03875 | 13.00441 | 21002 ft | 357 kts | 43° |
| 2026-05-06 07:35 | 62.05578 | 13.04208 | 20994 ft | 357 kts | 43° |
| 2026-05-06 07:35 | 62.07298 | 13.08021 | 20996 ft | 356 kts | 43° |
| 2026-05-06 07:35 | 62.09017 | 13.11839 | 20996 ft | 358 kts | 42° |
| 2026-05-06 07:36 | 62.10751 | 13.15695 | 21006 ft | 362 kts | 42° |
| 2026-05-06 07:36 | 62.12501 | 13.19594 | 21000 ft | 362 kts | 42° |
| 2026-05-06 07:36 | 62.14247 | 13.23491 | 20994 ft | 362 kts | 42° |
| 2026-05-06 07:36 | 62.15977 | 13.27364 | 20994 ft | 361 kts | 42° |
| 2026-05-06 07:37 | 62.17687 | 13.31196 | 20987 ft | 360 kts | 42° |
| 2026-05-06 07:37 | 62.19415 | 13.35073 | 21026 ft | 359 kts | 43° |
| 2026-05-06 07:37 | 62.21124 | 13.38918 | 20989 ft | 353 kts | 43° |
| 2026-05-06 07:37 | 62.22809 | 13.42716 | 20998 ft | 350 kts | 43° |
| 2026-05-06 07:38 | 62.24494 | 13.46517 | 20990 ft | 352 kts | 43° |
| 2026-05-06 07:38 | 62.26175 | 13.50315 | 20996 ft | 353 kts | 43° |
| 2026-05-06 07:38 | 62.27869 | 13.54152 | 20996 ft | 354 kts | 43° |
| 2026-05-06 07:38 | 62.29550 | 13.57965 | 20983 ft | 353 kts | 43° |
| 2026-05-06 07:39 | 62.31238 | 13.61802 | 20999 ft | 352 kts | 43° |
| 2026-05-06 07:39 | 62.32926 | 13.65647 | 21002 ft | 354 kts | 43° |
| 2026-05-06 07:39 | 62.34616 | 13.69500 | 20993 ft | 354 kts | 43° |
| 2026-05-06 07:39 | 62.36306 | 13.73359 | 20990 ft | 353 kts | 43° |
| 2026-05-06 07:40 | 62.37993 | 13.77222 | 20992 ft | 353 kts | 43° |
| 2026-05-06 07:40 | 62.39675 | 13.81078 | 20991 ft | 354 kts | 43° |
| 2026-05-06 07:40 | 62.41362 | 13.84955 | 20990 ft | 353 kts | 43° |
| 2026-05-06 07:40 | 62.43014 | 13.88755 | 20992 ft | 353 kts | 43° |
| 2026-05-06 07:41 | 62.44692 | 13.92622 | 21015 ft | 352 kts | 44° |
| 2026-05-06 07:41 | 62.46364 | 13.96487 | 20986 ft | 348 kts | 44° |
| 2026-05-06 07:41 | 62.48017 | 14.00311 | 20983 ft | 346 kts | 44° |
| 2026-05-06 07:41 | 62.49662 | 14.04123 | 20990 ft | 347 kts | 44° |
| 2026-05-06 07:42 | 62.51292 | 14.07907 | 20991 ft | 349 kts | 44° |
| 2026-05-06 07:42 | 62.52944 | 14.11749 | 20991 ft | 349 kts | 44° |
| 2026-05-06 07:42 | 62.54565 | 14.15523 | 20980 ft | 348 kts | 44° |
| 2026-05-06 07:42 | 62.56214 | 14.19375 | 20988 ft | 348 kts | 44° |
| 2026-05-06 07:43 | 62.57864 | 14.23230 | 20988 ft | 349 kts | 44° |
| 2026-05-06 07:43 | 62.59507 | 14.27078 | 20989 ft | 349 kts | 44° |
| 2026-05-06 07:43 | 62.61141 | 14.30913 | 20979 ft | 348 kts | 44° |
| 2026-05-06 07:43 | 62.62787 | 14.34780 | 20987 ft | 348 kts | 44° |
| 2026-05-06 07:44 | 62.64432 | 14.38652 | 20979 ft | 348 kts | 44° |
| 2026-05-06 07:44 | 62.66079 | 14.42535 | 20982 ft | 349 kts | 44° |
| 2026-05-06 07:44 | 62.67718 | 14.46408 | 20977 ft | 349 kts | 44° |
| 2026-05-06 07:44 | 62.69362 | 14.50298 | 21008 ft | 347 kts | 45° |
| 2026-05-06 07:45 | 62.70982 | 14.54142 | 20977 ft | 342 kts | 45° |
| 2026-05-06 07:45 | 62.72553 | 14.57876 | 20974 ft | 339 kts | 45° |
| 2026-05-06 07:45 | 62.74154 | 14.61685 | 20977 ft | 340 kts | 45° |
| 2026-05-06 07:45 | 62.75759 | 14.65513 | 20979 ft | 342 kts | 45° |
| 2026-05-06 07:46 | 62.77371 | 14.69356 | 20979 ft | 343 kts | 45° |
| 2026-05-06 07:46 | 62.78982 | 14.73209 | 20976 ft | 343 kts | 45° |
| 2026-05-06 07:46 | 62.80591 | 14.77064 | 20980 ft | 342 kts | 45° |
| 2026-05-06 07:46 | 62.82194 | 14.80912 | 20977 ft | 342 kts | 45° |
| 2026-05-06 07:47 | 62.83736 | 14.84620 | 20977 ft | 342 kts | 45° |
| 2026-05-06 07:47 | 62.85337 | 14.88475 | 20975 ft | 342 kts | 45° |
| 2026-05-06 07:47 | 62.86940 | 14.92343 | 20973 ft | 342 kts | 45° |
| 2026-05-06 07:47 | 62.88537 | 14.96202 | 20976 ft | 342 kts | 45° |
| 2026-05-06 07:48 | 62.90136 | 15.00075 | 20976 ft | 342 kts | 45° |
| 2026-05-06 07:48 | 62.91732 | 15.03947 | 20974 ft | 342 kts | 45° |
| 2026-05-06 07:48 | 62.93312 | 15.07786 | 20975 ft | 341 kts | 45° |
| 2026-05-06 07:48 | 62.94900 | 15.11651 | 20983 ft | 339 kts | 46° |
| 2026-05-06 07:49 | 62.95950 | 15.14212 | 20962 ft | 338 kts | 46° |
| 2026-05-06 07:49 | 62.97519 | 15.18041 | 20966 ft | 337 kts | 46° |
| 2026-05-06 07:49 | 62.99094 | 15.21891 | 20972 ft | 339 kts | 46° |
| 2026-05-06 07:49 | 63.00672 | 15.25754 | 20973 ft | 340 kts | 46° |
| 2026-05-06 07:50 | 63.02764 | 15.30890 | 20965 ft | 339 kts | 46° |
| 2026-05-06 07:50 | 63.03830 | 15.33512 | 20964 ft | 339 kts | 46° |
| 2026-05-06 07:50 | 63.05407 | 15.37394 | 20966 ft | 339 kts | 46° |
| 2026-05-06 07:50 | 63.06979 | 15.41272 | 20963 ft | 339 kts | 46° |
| 2026-05-06 07:51 | 63.08528 | 15.45102 | 20966 ft | 339 kts | 46° |
| 2026-05-06 07:51 | 63.10104 | 15.49003 | 20967 ft | 339 kts | 46° |
| 2026-05-06 07:51 | 63.11666 | 15.52878 | 20967 ft | 339 kts | 46° |
| 2026-05-06 07:51 | 63.13237 | 15.56780 | 20962 ft | 339 kts | 46° |
| 2026-05-06 07:52 | 63.14808 | 15.60690 | 20957 ft | 339 kts | 46° |
| 2026-05-06 07:52 | 63.16379 | 15.64605 | 20958 ft | 339 kts | 46° |
| 2026-05-06 07:52 | 63.17947 | 15.68523 | 20956 ft | 339 kts | 46° |
| 2026-05-06 07:52 | 63.19494 | 15.72393 | 20968 ft | 339 kts | 46° |
| 2026-05-06 07:53 | 63.21072 | 15.76349 | 20951 ft | 337 kts | 46° |
| 2026-05-06 07:53 | 63.22623 | 15.80246 | 20965 ft | 336 kts | 46° |
| 2026-05-06 07:53 | 63.24171 | 15.84140 | 20942 ft | 337 kts | 46° |
| 2026-05-06 07:53 | 63.25689 | 15.87963 | 20951 ft | 338 kts | 46° |
| 2026-05-06 07:54 | 63.27245 | 15.91889 | 20949 ft | 338 kts | 46° |
| 2026-05-06 07:54 | 63.28809 | 15.95844 | 20941 ft | 338 kts | 46° |
| 2026-05-06 07:54 | 63.30361 | 15.99776 | 20950 ft | 338 kts | 46° |
| 2026-05-06 07:54 | 63.31896 | 16.03672 | 20948 ft | 337 kts | 46° |
| 2026-05-06 07:55 | 63.33461 | 16.07649 | 20942 ft | 337 kts | 46° |
| 2026-05-06 07:55 | 63.35008 | 16.11590 | 20945 ft | 338 kts | 46° |
| 2026-05-06 07:55 | 63.36551 | 16.15526 | 20945 ft | 337 kts | 46° |
| 2026-05-06 07:55 | 63.38091 | 16.19460 | 20932 ft | 338 kts | 46° |
| 2026-05-06 07:56 | 63.39634 | 16.23412 | 20923 ft | 338 kts | 46° |
| 2026-05-06 07:56 | 63.41154 | 16.27310 | 20942 ft | 338 kts | 46° |
| 2026-05-06 07:56 | 63.42705 | 16.31296 | 20947 ft | 340 kts | 46° |
| 2026-05-06 07:56 | 63.44251 | 16.35275 | 20928 ft | 338 kts | 46° |
| 2026-05-06 07:57 | 63.45810 | 16.39298 | 20929 ft | 337 kts | 46° |
| 2026-05-06 07:57 | 63.47345 | 16.43262 | 20931 ft | 337 kts | 46° |
| 2026-05-06 07:57 | 63.48858 | 16.47178 | 20919 ft | 337 kts | 46° |
| 2026-05-06 07:57 | 63.50410 | 16.51202 | 20942 ft | 338 kts | 46° |
| 2026-05-06 07:58 | 63.51942 | 16.55180 | 20927 ft | 338 kts | 47° |
| 2026-05-06 07:58 | 63.53478 | 16.59178 | 20923 ft | 337 kts | 46° |
| 2026-05-06 07:58 | 63.55016 | 16.63186 | 20936 ft | 338 kts | 46° |
| 2026-05-06 07:58 | 63.56527 | 16.67131 | 20922 ft | 337 kts | 47° |
| 2026-05-06 07:59 | 63.58067 | 16.71161 | 20924 ft | 338 kts | 46° |
| 2026-05-06 07:59 | 63.59606 | 16.75192 | 20914 ft | 338 kts | 47° |
| 2026-05-06 07:59 | 63.61131 | 16.79197 | 20919 ft | 337 kts | 47° |
| 2026-05-06 07:59 | 63.62638 | 16.83162 | 20930 ft | 338 kts | 47° |
| 2026-05-06 08:00 | 63.64165 | 16.87186 | 20914 ft | 338 kts | 47° |
| 2026-05-06 08:00 | 63.65692 | 16.91220 | 20928 ft | 337 kts | 47° |
| 2026-05-06 08:00 | 63.67215 | 16.95244 | 20921 ft | 338 kts | 47° |
| 2026-05-06 08:00 | 63.68745 | 16.99299 | 20910 ft | 338 kts | 47° |
| 2026-05-06 08:01 | 63.70265 | 17.03332 | 20910 ft | 338 kts | 47° |
| 2026-05-06 08:01 | 63.71783 | 17.07367 | 20912 ft | 338 kts | 47° |
| 2026-05-06 08:01 | 63.73304 | 17.11419 | 20898 ft | 337 kts | 47° |
| 2026-05-06 08:01 | 63.74810 | 17.15438 | 20904 ft | 338 kts | 47° |
| 2026-05-06 08:02 | 63.76330 | 17.19502 | 20920 ft | 338 kts | 47° |
| 2026-05-06 08:02 | 63.77844 | 17.23560 | 20905 ft | 337 kts | 47° |
| 2026-05-06 08:02 | 63.79342 | 17.27577 | 20916 ft | 338 kts | 47° |
| 2026-05-06 08:02 | 63.80856 | 17.31650 | 20900 ft | 338 kts | 47° |
| 2026-05-06 08:03 | 63.82373 | 17.35735 | 20901 ft | 338 kts | 47° |
| 2026-05-06 08:03 | 63.83887 | 17.39818 | 20898 ft | 339 kts | 47° |
| 2026-05-06 08:03 | 63.85404 | 17.43920 | 20901 ft | 339 kts | 47° |
| 2026-05-06 08:03 | 63.86918 | 17.48020 | 20903 ft | 339 kts | 47° |
| 2026-05-06 08:04 | 63.88433 | 17.52128 | 20909 ft | 339 kts | 47° |
| 2026-05-06 08:04 | 63.89917 | 17.56164 | 20911 ft | 338 kts | 47° |
| 2026-05-06 08:04 | 63.91431 | 17.60286 | 20916 ft | 339 kts | 47° |
| 2026-05-06 08:04 | 63.92933 | 17.64386 | 20891 ft | 336 kts | 47° |
| 2026-05-06 08:05 | 63.94416 | 17.68440 | 20893 ft | 334 kts | 47° |
| 2026-05-06 08:05 | 63.95901 | 17.72505 | 20896 ft | 335 kts | 47° |
| 2026-05-06 08:05 | 63.97388 | 17.76584 | 20897 ft | 335 kts | 47° |
| 2026-05-06 08:05 | 63.98879 | 17.80680 | 20901 ft | 336 kts | 47° |
| 2026-05-06 08:06 | 64.00368 | 17.84783 | 20895 ft | 336 kts | 48° |
| 2026-05-06 08:06 | 64.01853 | 17.88879 | 20885 ft | 335 kts | 47° |
| 2026-05-06 08:06 | 64.03344 | 17.92999 | 20880 ft | 336 kts | 47° |
| 2026-05-06 08:06 | 64.04808 | 17.97049 | 20881 ft | 335 kts | 47° |
| 2026-05-06 08:07 | 64.06287 | 18.01153 | 20884 ft | 336 kts | 47° |
| 2026-05-06 08:07 | 64.07774 | 18.05285 | 20883 ft | 336 kts | 48° |
| 2026-05-06 08:07 | 64.09256 | 18.09410 | 20882 ft | 335 kts | 48° |
| 2026-05-06 08:07 | 64.10738 | 18.13543 | 20875 ft | 335 kts | 48° |
| 2026-05-06 08:08 | 64.12217 | 18.17675 | 20875 ft | 335 kts | 48° |
| 2026-05-06 08:08 | 64.13694 | 18.21812 | 20875 ft | 335 kts | 48° |
| 2026-05-06 08:08 | 64.15167 | 18.25942 | 20875 ft | 336 kts | 48° |
| 2026-05-06 08:08 | 64.16640 | 18.30081 | 20875 ft | 335 kts | 48° |
| 2026-05-06 08:09 | 64.18115 | 18.34233 | 20867 ft | 335 kts | 48° |
| 2026-05-06 08:09 | 64.19577 | 18.38356 | 20867 ft | 335 kts | 48° |
| 2026-05-06 08:09 | 64.21045 | 18.42506 | 20866 ft | 334 kts | 48° |
| 2026-05-06 08:09 | 64.22494 | 18.46607 | 20866 ft | 335 kts | 48° |
| 2026-05-06 08:10 | 64.23961 | 18.50768 | 20862 ft | 335 kts | 48° |
| 2026-05-06 08:10 | 64.25418 | 18.54912 | 20861 ft | 335 kts | 48° |
| 2026-05-06 08:10 | 64.26878 | 18.59066 | 20854 ft | 333 kts | 48° |
| 2026-05-06 08:10 | 64.28333 | 18.63216 | 20850 ft | 333 kts | 48° |
| 2026-05-06 08:11 | 64.29789 | 18.67376 | 20841 ft | 333 kts | 48° |
| 2026-05-06 08:11 | 64.31242 | 18.71535 | 20837 ft | 334 kts | 48° |
| 2026-05-06 08:11 | 64.32694 | 18.75698 | 20855 ft | 333 kts | 48° |
| 2026-05-06 08:11 | 64.34134 | 18.79836 | 20855 ft | 333 kts | 48° |
| 2026-05-06 08:12 | 64.35584 | 18.84010 | 20854 ft | 333 kts | 48° |
| 2026-05-06 08:12 | 64.37035 | 18.88194 | 20855 ft | 333 kts | 48° |
| 2026-05-06 08:12 | 64.38485 | 18.92384 | 20854 ft | 334 kts | 48° |
| 2026-05-06 08:12 | 64.39916 | 18.96530 | 20869 ft | 333 kts | 49° |
| 2026-05-06 08:13 | 64.41363 | 19.00725 | 20852 ft | 333 kts | 49° |
| 2026-05-06 08:13 | 64.42802 | 19.04907 | 20853 ft | 333 kts | 49° |
| 2026-05-06 08:13 | 64.44244 | 19.09107 | 20853 ft | 332 kts | 50° |
| 2026-05-06 08:13 | 64.45664 | 19.13246 | 20855 ft | 333 kts | 49° |
| 2026-05-06 08:14 | 64.47106 | 19.17462 | 20855 ft | 333 kts | 50° |
| 2026-05-06 08:14 | 64.48546 | 19.21679 | 20854 ft | 333 kts | 50° |
| 2026-05-06 08:14 | 64.49986 | 19.25903 | 20846 ft | 333 kts | 50° |
| 2026-05-06 08:14 | 64.51395 | 19.30047 | 20547 ft | 320 kts | 50° |
| 2026-05-06 08:15 | 64.52769 | 19.34095 | 19673 ft | 319 kts | 49° |
| 2026-05-06 08:15 | 64.54143 | 19.38150 | 18771 ft | 318 kts | 49° |
| 2026-05-06 08:15 | 64.55514 | 19.42201 | 17953 ft | 314 kts | 49° |
| 2026-05-06 08:15 | 64.56841 | 19.46130 | 17083 ft | 310 kts | 49° |
| 2026-05-06 08:16 | 64.58168 | 19.50066 | 16241 ft | 306 kts | 49° |
| 2026-05-06 08:16 | 64.59476 | 19.53953 | 15430 ft | 302 kts | 49° |
| 2026-05-06 08:16 | 64.60770 | 19.57807 | 14620 ft | 299 kts | 49° |
| 2026-05-06 08:16 | 64.62041 | 19.61595 | 13834 ft | 295 kts | 49° |
| 2026-05-06 08:17 | 64.63299 | 19.65352 | 13035 ft | 291 kts | 51° |
| 2026-05-06 08:17 | 64.64528 | 19.69026 | 12209 ft | 288 kts | 51° |
| 2026-05-06 08:17 | 64.65756 | 19.72706 | 11414 ft | 284 kts | 51° |
| 2026-05-06 08:17 | 64.66950 | 19.76291 | 10664 ft | 281 kts | 50° |
| 2026-05-06 08:18 | 64.68146 | 19.79888 | 9880 ft | 279 kts | 50° |
| 2026-05-06 08:18 | 64.69335 | 19.83469 | 9090 ft | 276 kts | 50° |
| 2026-05-06 08:18 | 64.70463 | 19.86881 | 8851 ft | 254 kts | 50° |
| 2026-05-06 08:18 | 64.71518 | 19.90071 | 8453 ft | 242 kts | 49° |
| 2026-05-06 08:19 | 64.72597 | 19.93321 | 8642 ft | 256 kts | 50° |
| 2026-05-06 08:19 | 64.73678 | 19.96594 | 9635 ft | 250 kts | 50° |
| 2026-05-06 08:19 | 64.74736 | 19.99803 | 10502 ft | 248 kts | 50° |
| 2026-05-06 08:19 | 64.75798 | 20.03022 | 11318 ft | 251 kts | 50° |
| 2026-05-06 08:20 | 64.76835 | 20.06177 | 11821 ft | 243 kts | 51° |
| 2026-05-06 08:20 | 64.77852 | 20.09282 | 11682 ft | 242 kts | 50° |
| 2026-05-06 08:20 | 64.78888 | 20.12446 | 11320 ft | 246 kts | 50° |
| 2026-05-06 08:20 | 64.79921 | 20.15607 | 10978 ft | 248 kts | 50° |
| 2026-05-06 08:21 | 64.80971 | 20.18817 | 10692 ft | 246 kts | 51° |
| 2026-05-06 08:21 | 64.82029 | 20.22062 | 10378 ft | 247 kts | 50° |
| 2026-05-06 08:21 | 64.83073 | 20.25270 | 10073 ft | 247 kts | 50° |
| 2026-05-06 08:21 | 64.84097 | 20.28420 | 9801 ft | 245 kts | 50° |
| 2026-05-06 08:22 | 64.85124 | 20.31582 | 9520 ft | 240 kts | 50° |
| 2026-05-06 08:22 | 64.86133 | 20.34693 | 8922 ft | 238 kts | 50° |
| 2026-05-06 08:22 | 64.87135 | 20.37781 | 8404 ft | 234 kts | 50° |
| 2026-05-06 08:22 | 64.87771 | 20.39747 | 8048 ft | 233 kts | 50° |
| 2026-05-06 08:23 | 64.88727 | 20.42710 | 7810 ft | 218 kts | 50° |
| 2026-05-06 08:23 | 64.89612 | 20.45461 | 7804 ft | 208 kts | 49° |
| 2026-05-06 08:23 | 64.90503 | 20.48217 | 7836 ft | 214 kts | 50° |
| 2026-05-06 08:23 | 64.91405 | 20.51011 | 7820 ft | 214 kts | 50° |
| 2026-05-06 08:24 | 64.92305 | 20.53800 | 7816 ft | 213 kts | 50° |
| 2026-05-06 08:24 | 64.93201 | 20.56591 | 7832 ft | 214 kts | 50° |
| 2026-05-06 08:24 | 64.94099 | 20.59392 | 7832 ft | 214 kts | 50° |
| 2026-05-06 08:24 | 64.94969 | 20.62108 | 7736 ft | 205 kts | 50° |
| 2026-05-06 08:25 | 64.95830 | 20.64806 | 7231 ft | 206 kts | 50° |
| 2026-05-06 08:25 | 64.96695 | 20.67515 | 6747 ft | 207 kts | 50° |
| 2026-05-06 08:25 | 64.97565 | 20.70233 | 6384 ft | 206 kts | 50° |
| 2026-05-06 08:25 | 64.98432 | 20.72948 | 6005 ft | 207 kts | 50° |
| 2026-05-06 08:26 | 64.99297 | 20.75667 | 5600 ft | 205 kts | 50° |
| 2026-05-06 08:26 | 65.00154 | 20.78362 | 5128 ft | 204 kts | 50° |
| 2026-05-06 08:26 | 65.00992 | 20.81003 | 4676 ft | 204 kts | 51° |
| 2026-05-06 08:26 | 65.01841 | 20.83682 | 4268 ft | 201 kts | 50° |
| 2026-05-06 08:27 | 65.02678 | 20.86322 | 3926 ft | 198 kts | 50° |
| 2026-05-06 08:27 | 65.03477 | 20.88875 | 3783 ft | 185 kts | 50° |
| 2026-05-06 08:27 | 65.04231 | 20.91260 | 3815 ft | 182 kts | 50° |
| 2026-05-06 08:27 | 65.05004 | 20.93702 | 3844 ft | 187 kts | 50° |
| 2026-05-06 08:28 | 65.05784 | 20.96166 | 3825 ft | 187 kts | 50° |
| 2026-05-06 08:28 | 65.06570 | 20.98574 | 3825 ft | 187 kts | 47° |
| 2026-05-06 08:28 | 65.07408 | 21.00920 | 3837 ft | 186 kts | 46° |
| 2026-05-06 08:28 | 65.08273 | 21.03212 | 3827 ft | 184 kts | 45° |
| 2026-05-06 08:29 | 65.09145 | 21.05431 | 3817 ft | 183 kts | 44° |
| 2026-05-06 08:29 | 65.10032 | 21.07595 | 3817 ft | 179 kts | 43° |
| 2026-05-06 08:29 | 65.10918 | 21.09669 | 3826 ft | 180 kts | 43° |
| 2026-05-06 08:29 | 65.11815 | 21.11777 | 3826 ft | 182 kts | 43° |
| 2026-05-06 08:30 | 65.12713 | 21.13860 | 3828 ft | 181 kts | 43° |
| 2026-05-06 08:30 | 65.13597 | 21.15913 | 3827 ft | 181 kts | 42° |
| 2026-05-06 08:30 | 65.14492 | 21.17984 | 3826 ft | 180 kts | 42° |
| 2026-05-06 08:30 | 65.15397 | 21.20060 | 3827 ft | 181 kts | 42° |
| 2026-05-06 08:31 | 65.16279 | 21.22062 | 3592 ft | 172 kts | 42° |
| 2026-05-06 08:31 | 65.17149 | 21.24051 | 3153 ft | 175 kts | 41° |
| 2026-05-06 08:31 | 65.18010 | 21.26015 | 2733 ft | 174 kts | 42° |
| 2026-05-06 08:31 | 65.18886 | 21.28038 | 2324 ft | 175 kts | 42° |
| 2026-05-06 08:32 | 65.19747 | 21.30035 | 2044 ft | 167 kts | 42° |
| 2026-05-06 08:32 | 65.20541 | 21.31877 | 2014 ft | 163 kts | 42° |
| 2026-05-06 08:32 | 65.21416 | 21.33892 | 2047 ft | 183 kts | 41° |
| 2026-05-06 08:32 | 65.22327 | 21.35993 | 2014 ft | 184 kts | 42° |
| 2026-05-06 08:33 | 65.23249 | 21.38128 | 2036 ft | 185 kts | 43° |
| 2026-05-06 08:33 | 65.24175 | 21.40269 | 2030 ft | 184 kts | 42° |
| 2026-05-06 08:33 | 65.25088 | 21.42404 | 2028 ft | 183 kts | 43° |
| 2026-05-06 08:33 | 65.26000 | 21.44538 | 2028 ft | 183 kts | 43° |
| 2026-05-06 08:34 | 65.26912 | 21.46676 | 2028 ft | 184 kts | 43° |
| 2026-05-06 08:34 | 65.28729 | 21.50941 | 2032 ft | 184 kts | 42° |
| 2026-05-06 08:34 | 65.29636 | 21.53084 | 2027 ft | 183 kts | 43° |
| 2026-05-06 08:35 | 65.30546 | 21.55230 | 2018 ft | 184 kts | 43° |
| 2026-05-06 08:35 | 65.31462 | 21.57390 | 2032 ft | 185 kts | 43° |
| 2026-05-06 08:35 | 65.32369 | 21.59540 | 2015 ft | 183 kts | 43° |
| 2026-05-06 08:35 | 65.33272 | 21.61691 | 2031 ft | 183 kts | 43° |
| 2026-05-06 08:36 | 65.34179 | 21.63840 | 2013 ft | 184 kts | 42° |
| 2026-05-06 08:36 | 65.35079 | 21.65966 | 2006 ft | 174 kts | 44° |
| 2026-05-06 08:36 | 65.35890 | 21.67903 | 2012 ft | 158 kts | 43° |
| 2026-05-06 08:36 | 65.36665 | 21.69745 | 2033 ft | 157 kts | 43° |
| 2026-05-06 08:37 | 65.37443 | 21.71583 | 2011 ft | 157 kts | 43° |
| 2026-05-06 08:37 | 65.38214 | 21.73425 | 2048 ft | 156 kts | 43° |
| 2026-05-06 08:37 | 65.38995 | 21.75292 | 2029 ft | 159 kts | 43° |
| 2026-05-06 08:37 | 65.39759 | 21.77122 | 2007 ft | 157 kts | 44° |
| 2026-05-06 08:38 | 65.40528 | 21.78974 | 2024 ft | 156 kts | 43° |
| 2026-05-06 08:38 | 65.41297 | 21.80816 | 2011 ft | 158 kts | 43° |
| 2026-05-06 08:38 | 65.42071 | 21.82680 | 2022 ft | 157 kts | 44° |
| 2026-05-06 08:38 | 65.42849 | 21.84545 | 2006 ft | 157 kts | 43° |
| 2026-05-06 08:39 | 65.43622 | 21.86408 | 2023 ft | 158 kts | 43° |
| 2026-05-06 08:39 | 65.44394 | 21.88269 | 2006 ft | 156 kts | 44° |
| 2026-05-06 08:39 | 65.45165 | 21.90131 | 2001 ft | 157 kts | 44° |
| 2026-05-06 08:39 | 65.45941 | 21.92006 | 2016 ft | 159 kts | 44° |
| 2026-05-06 08:40 | 65.46714 | 21.93871 | 2013 ft | 158 kts | 44° |
| 2026-05-06 08:40 | 65.47488 | 21.95742 | 2014 ft | 156 kts | 43° |
| 2026-05-06 08:40 | 65.48237 | 21.97558 | 2013 ft | 158 kts | 44° |
| 2026-05-06 08:40 | 65.49007 | 21.99440 | 2013 ft | 157 kts | 44° |
| 2026-05-06 08:41 | 65.49760 | 22.01278 | 2080 ft | 159 kts | 44° |
| 2026-05-06 08:41 | 65.50572 | 22.03185 | 2084 ft | 168 kts | 42° |
| 2026-05-06 08:41 | 65.51424 | 22.05093 | 1885 ft | 164 kts | 41° |
| 2026-05-06 08:41 | 65.52261 | 22.06914 | 1533 ft | 162 kts | 40° |
| 2026-05-06 08:42 | 65.53089 | 22.08721 | 1429 ft | 163 kts | 40° |
| 2026-05-06 08:42 | 65.53925 | 22.10587 | 1452 ft | 162 kts | 42° |
| 2026-05-06 08:42 | 65.54710 | 22.12478 | 1528 ft | 160 kts | 52° |
| 2026-05-06 08:42 | 65.55144 | 22.14958 | 1526 ft | 165 kts | 77° |
| 2026-05-06 08:43 | 65.55175 | 22.17769 | 1519 ft | 168 kts | 95° |
| 2026-05-06 08:43 | 65.54945 | 22.20502 | 1574 ft | 163 kts | 99° |
| 2026-05-06 08:43 | 65.54751 | 22.23083 | 1373 ft | 151 kts | 97° |
| 2026-05-06 08:43 | 65.54495 | 22.25401 | 1161 ft | 139 kts | 125° |
| 2026-05-06 08:44 | 65.53599 | 22.26200 | 1065 ft | 146 kts | 195° |
| 2026-05-06 08:44 | 65.52925 | 22.24518 | 1165 ft | 152 kts | 249° |
| 2026-05-06 08:44 | 65.52523 | 22.22155 | 1055 ft | 150 kts | 250° |
| 2026-05-06 08:44 | 65.52188 | 22.19768 | 582 ft | 151 kts | 263° |
| 2026-05-06 08:45 | 65.52349 | 22.17339 | 250 ft | 148 kts | 297° |
| 2026-05-06 08:45 | 65.52958 | 22.15434 | 103 ft | 139 kts | 316° |
| 2026-05-06 08:45 | 65.53630 | 22.13890 | 29 ft | 124 kts | 319° |
| 2026-05-06 08:45 | 65.53993 | 22.13075 | 35 ft | 27 kts | 315° |
| 2026-05-06 08:46 | 65.54089 | 22.12867 | 36 ft | 13 kts | 319° |
| 2026-05-06 08:46 | 65.54143 | 22.12739 | 38 ft | 10 kts | 315° |
| 2026-05-06 08:46 | 65.54198 | 22.12604 | 40 ft | 11 kts | 316° |
| 2026-05-06 08:46 | 65.54213 | 22.12505 | 39 ft | 10 kts | 244° |
| 2026-05-06 08:47 | 65.54173 | 22.12325 | 42 ft | 12 kts | 242° |
| 2026-05-06 08:47 | 65.54138 | 22.12168 | 42 ft | 10 kts | 241° |
| 2026-05-06 08:47 | 65.54099 | 22.12032 | 40 ft | 7 kts | 215° |
| 2026-05-06 08:47 | 65.54044 | 22.12018 | 40 ft | 8 kts | 177° |
| 2026-05-06 08:48 | 65.54007 | 22.12087 | 40 ft | 7 kts | 138° |
| 2026-05-06 08:48 | 65.53998 | 22.12143 | 40 ft | 5 kts | 75° |
| 2026-05-06 08:48 | 65.54002 | 22.12154 | 40 ft | 0 kts | 52° |